createdAt,value
2018-11-21T06:34:29.144Z,86.13
2018-11-21T06:36:54.935Z,85.95
2018-11-21T06:39:23.481Z,85.45
2018-11-21T06:41:51.984Z,84.52
2018-11-21T06:44:20.563Z,84.06
2018-11-21T06:46:49.123Z,83.54
2018-11-21T06:49:17.744Z,82.86
2018-11-21T06:51:46.214Z,82.44
2018-11-21T06:54:15.088Z,82.54
2018-11-21T06:56:44.609Z,82.40
2018-11-21T06:59:12.127Z,82.47
2018-11-21T07:01:41.131Z,82.16
2018-11-21T07:04:09.730Z,81.95
2018-11-21T07:06:38.285Z,81.52
2018-11-21T07:09:11.718Z,81.52
2018-11-21T07:11:40.346Z,81.29
2018-11-21T07:14:09.142Z,81.00
2018-11-21T07:16:38.809Z,80.86
2018-11-21T07:19:07.329Z,80.86
2018-11-21T07:21:35.809Z,80.69
2018-11-21T07:24:04.433Z,80.59
2018-11-21T07:26:32.992Z,80.27
2018-11-21T07:29:01.700Z,80.18
2018-11-21T07:31:30.217Z,80.59
2018-11-21T07:36:12.496Z,80.31
2018-11-21T07:38:41.013Z,80.38
2018-11-21T07:41:09.561Z,80.43
2018-11-21T07:43:38.135Z,80.60
2018-11-21T07:46:06.648Z,80.85
2018-11-21T07:48:35.293Z,80.81
2018-11-21T07:51:03.814Z,80.80
2018-11-21T07:53:32.367Z,81.14
2018-11-21T07:56:00.858Z,81.29
2018-11-21T07:58:29.486Z,81.81
2018-11-21T08:01:14.559Z,81.91
2018-11-21T08:03:47.772Z,81.86
2018-11-21T08:06:28.557Z,82.46
2018-11-21T08:09:14.715Z,82.77
2018-11-21T08:12:02.305Z,82.91
2018-11-21T08:14:44.466Z,83.22
2018-11-21T08:17:40.911Z,83.67
2018-11-21T08:20:27.163Z,83.70
2018-11-21T08:23:13.376Z,84.02
2018-11-21T08:26:00.938Z,84.56
2018-11-21T08:28:32.458Z,84.63
2018-11-21T08:31:01.004Z,84.74
2018-11-21T08:33:34.130Z,84.83
2018-11-21T08:35:59.297Z,84.80
2018-11-21T08:38:27.829Z,84.80
2018-11-21T08:40:56.361Z,84.81
2018-11-21T08:43:24.950Z,84.88
2018-11-21T08:45:53.484Z,84.55
2018-11-21T08:48:22.554Z,84.68
2018-11-21T08:50:51.044Z,84.78
2018-11-21T08:53:19.652Z,84.49
2018-11-21T08:55:48.210Z,84.40
2018-11-21T08:58:16.707Z,84.31
2018-11-21T09:00:45.793Z,84.48
2018-11-21T09:03:14.322Z,84.70
2018-11-21T09:05:42.866Z,84.66
2018-11-21T09:08:11.444Z,84.66
2018-11-21T09:10:39.928Z,84.52
2018-11-21T09:13:08.454Z,84.56
2018-11-21T09:15:37.002Z,84.58
2018-11-21T09:18:05.791Z,84.68
2018-11-21T09:20:34.354Z,84.98
2018-11-21T09:23:02.921Z,85.15
2018-11-21T09:25:31.472Z,85.36
2018-11-21T09:28:00.126Z,85.19
2018-11-21T09:30:28.727Z,85.14
2018-11-21T09:32:57.871Z,85.31
2018-11-21T09:35:26.382Z,85.25
2018-11-21T09:37:54.870Z,84.97
2018-11-21T09:40:24.073Z,85.11
2018-11-21T09:42:54.164Z,85.07
2018-11-21T09:45:23.481Z,84.84
2018-11-21T09:47:51.996Z,85.06
2018-11-21T09:50:27.793Z,84.40
2018-11-21T09:52:56.331Z,82.54
2018-11-21T09:55:24.961Z,81.90
2018-11-21T09:57:53.494Z,82.29
2018-11-21T10:00:58.363Z,82.11
2018-11-21T10:03:31.702Z,82.55
2018-11-21T10:06:09.520Z,82.57
2018-11-21T10:08:40.984Z,82.88
2018-11-21T10:11:10.266Z,82.83
2018-11-21T10:13:38.815Z,82.80
2018-11-21T10:16:08.153Z,83.07
2018-11-21T10:18:38.037Z,83.48
2018-11-21T10:21:08.718Z,83.56
2018-11-21T10:23:37.298Z,83.59
2018-11-21T10:26:06.305Z,83.34
2018-11-21T10:28:34.755Z,83.15
2018-11-21T10:31:03.725Z,83.42
2018-11-21T10:33:32.397Z,83.50
2018-11-21T10:36:00.910Z,83.71
2018-11-21T10:38:29.466Z,83.45
2018-11-21T10:40:58.151Z,82.85
2018-11-21T10:43:28.446Z,82.64
2018-11-21T10:45:55.316Z,83.20
2018-11-21T10:48:23.811Z,83.20
2018-11-21T10:50:52.351Z,83.36
2018-11-21T10:53:20.902Z,83.58
2018-11-21T10:55:49.521Z,83.14
2018-11-21T10:58:18.225Z,83.51
2018-11-21T11:01:04.449Z,83.48
2018-11-21T11:03:38.365Z,83.62
2018-11-21T11:06:24.966Z,84.02
2018-11-21T11:09:11.135Z,83.94
2018-11-21T11:12:07.659Z,84.20
2018-11-21T11:14:54.885Z,84.03
2018-11-21T11:17:41.765Z,83.68
2018-11-21T11:20:38.828Z,83.48
2018-11-21T11:23:25.100Z,83.91
2018-11-21T11:26:05.925Z,83.88
2018-11-21T11:28:52.549Z,83.60
2018-11-21T11:31:38.729Z,83.99
2018-11-21T11:34:29.042Z,83.77
2018-11-21T11:37:15.334Z,83.93
2018-11-21T11:40:01.377Z,84.00
2018-11-21T11:42:47.392Z,84.29
2018-11-21T11:45:33.661Z,84.36
2018-11-21T11:48:33.171Z,83.93
2018-11-21T11:51:19.428Z,83.53
2018-11-21T11:54:19.114Z,84.60
2018-11-21T11:57:21.587Z,84.68
2018-11-21T12:00:02.657Z,84.48
2018-11-21T12:02:59.113Z,83.97
2018-11-21T12:05:52.474Z,83.94
2018-11-21T12:08:38.930Z,84.09
2018-11-21T12:11:25.193Z,84.56
2018-11-21T12:14:11.537Z,83.79
2018-11-21T12:16:57.802Z,83.40
2018-11-21T12:19:38.053Z,83.71
2018-11-21T12:22:25.645Z,83.29
2018-11-21T12:25:12.169Z,82.78
2018-11-21T12:27:58.551Z,82.09
2018-11-21T12:30:55.153Z,82.17
2018-11-21T12:33:31.214Z,82.81
2018-11-21T12:36:24.713Z,83.04
2018-11-21T12:39:09.489Z,83.21
2018-11-21T12:41:55.794Z,83.53
2018-11-21T12:44:32.746Z,83.42
2018-11-21T12:47:29.026Z,82.78
2018-11-21T12:50:22.220Z,82.15
2018-11-21T12:53:09.563Z,81.82
2018-11-21T12:55:55.870Z,81.64
2018-11-21T12:58:43.516Z,81.70
2018-11-21T13:01:31.183Z,82.13
2018-11-21T13:04:17.552Z,82.76
2018-11-21T13:07:04.016Z,82.76
2018-11-21T13:09:41.641Z,82.54
2018-11-21T13:12:34.995Z,82.44
2018-11-21T13:15:11.797Z,82.46
2018-11-21T13:17:53.297Z,82.39
2018-11-21T13:20:39.257Z,81.81
2018-11-21T13:23:19.926Z,82.40
2018-11-21T13:26:22.815Z,81.99
2018-11-21T13:29:22.585Z,82.13
2018-11-21T13:32:12.771Z,82.63
2018-11-21T13:34:59.094Z,82.21
2018-11-21T13:37:46.751Z,82.07
2018-11-21T13:40:32.980Z,81.48
2018-11-21T13:43:12.168Z,81.38
2018-11-21T13:46:05.794Z,81.46
2018-11-21T13:49:11.469Z,81.72
2018-11-21T13:51:49.080Z,82.13
2018-11-21T13:54:35.428Z,82.01
2018-11-21T13:57:03.949Z,82.20
2018-11-21T13:59:32.543Z,82.45
2018-11-21T14:02:01.047Z,82.10
2018-11-21T14:04:29.649Z,82.41
2018-11-21T14:06:58.140Z,82.73
2018-11-21T14:09:26.694Z,82.81
2018-11-21T14:11:55.252Z,83.53
2018-11-21T14:14:23.820Z,83.57
2018-11-21T14:16:54.372Z,83.68
2018-11-21T14:19:22.900Z,83.84
2018-11-21T14:21:55.869Z,83.62
2018-11-21T14:24:19.943Z,83.76
2018-11-21T14:26:48.532Z,83.87
2018-11-21T14:29:17.044Z,83.53
2018-11-21T14:31:46.135Z,83.50
2018-11-21T14:34:14.696Z,83.52
2018-11-21T14:36:43.260Z,83.71
2018-11-21T14:39:13.325Z,83.56
2018-11-21T14:41:42.962Z,83.13
2018-11-21T14:44:11.585Z,83.33
2018-11-21T14:46:41.259Z,83.96
2018-11-21T14:49:09.922Z,83.99
2018-11-21T14:51:38.854Z,83.10
2018-11-21T14:54:11.629Z,82.93
2018-11-21T14:56:40.117Z,82.57
2018-11-21T14:59:08.668Z,82.38
2018-11-21T15:01:37.336Z,82.59
2018-11-21T15:04:06.118Z,83.20
2018-11-21T15:06:34.656Z,84.13
2018-11-21T15:09:04.158Z,84.01
2018-11-21T15:11:32.680Z,82.95
2018-11-21T15:14:01.189Z,82.93
2018-11-21T15:16:29.771Z,83.73
2018-11-21T15:18:58.363Z,84.02
2018-11-21T15:21:26.896Z,84.18
2018-11-21T15:23:55.424Z,83.80
2018-11-21T15:26:23.930Z,83.17
2018-11-21T15:28:52.851Z,83.77
2018-11-21T15:31:21.421Z,83.62
2018-11-21T17:37:38.424Z,81.72
2018-11-21T17:40:15.880Z,82.41
2018-11-21T17:42:44.548Z,82.86
2018-11-21T17:45:13.943Z,83.51
2018-11-21T17:47:42.615Z,84.48
2018-11-21T17:50:13.577Z,85.02
2018-11-21T17:52:42.408Z,83.12
2018-11-21T17:55:15.978Z,83.15
2018-11-21T17:57:44.563Z,83.70
2018-11-21T18:00:23.738Z,84.30
2018-11-21T18:02:53.078Z,83.49
2018-11-21T18:05:26.171Z,83.93
2018-11-21T18:07:54.680Z,82.42
2018-11-21T18:10:25.031Z,82.41
2018-11-21T18:12:53.590Z,82.42
2018-11-21T18:15:22.770Z,82.43
2018-11-21T18:17:51.436Z,81.98
2018-11-21T18:20:20.691Z,82.38
2018-11-21T18:22:50.466Z,82.20
2018-11-21T18:25:21.062Z,82.01
2018-11-21T18:27:49.700Z,81.42
2018-11-21T18:30:22.412Z,81.15
2018-11-21T18:32:53.668Z,81.30
2018-11-21T18:35:23.072Z,81.04
2018-11-21T18:37:51.920Z,80.34
2018-11-21T18:40:25.022Z,80.04
2018-11-21T18:42:53.809Z,79.61
2018-11-21T18:45:28.166Z,79.50
2018-11-21T18:47:56.755Z,79.91
2018-11-21T18:50:25.366Z,80.02
2018-11-21T18:52:55.404Z,78.98
2018-11-21T18:55:26.236Z,79.34
2018-11-21T18:58:17.571Z,79.62
2018-11-21T19:00:48.496Z,79.79
2018-11-21T19:03:17.044Z,80.79
2018-11-21T19:05:45.573Z,80.87
2018-11-21T19:08:14.124Z,81.24
2018-11-21T19:10:42.680Z,82.36
2018-11-21T19:13:11.250Z,82.32
2018-11-21T19:15:40.127Z,81.10
2018-11-21T19:18:08.625Z,81.50
2018-11-21T19:20:37.191Z,81.11
2018-11-21T19:23:05.919Z,81.58
2018-11-21T19:25:34.444Z,82.01
2018-11-21T19:28:03.031Z,81.63
2018-11-21T19:30:31.648Z,81.20
2018-11-21T19:33:00.213Z,80.66
2018-11-21T19:35:28.753Z,81.25
2018-11-21T19:37:57.352Z,81.93
2018-11-21T19:40:27.010Z,81.70
2018-11-21T19:42:55.590Z,81.57
2018-11-21T19:45:24.219Z,81.18
2018-11-21T19:47:52.893Z,80.92
2018-11-21T19:50:21.564Z,81.85
2018-11-21T19:52:50.575Z,81.45
2018-11-21T19:55:21.213Z,81.60
2018-11-21T19:57:49.838Z,81.04
2018-11-21T20:00:22.011Z,80.34
2018-11-21T20:02:50.953Z,80.11
2018-11-21T20:05:19.489Z,79.42
2018-11-21T20:07:48.144Z,78.98
2018-11-21T20:10:17.538Z,78.11
2018-11-21T20:12:46.144Z,79.44
2018-11-21T20:15:16.185Z,79.25
2018-11-21T20:17:46.570Z,79.50
2018-11-21T20:20:16.801Z,79.80
2018-11-21T20:22:45.939Z,80.34
2018-11-21T20:25:15.869Z,79.29
2018-11-21T20:27:44.472Z,79.43
2018-11-21T20:30:39.047Z,79.08
2018-11-21T20:33:07.686Z,80.14
2018-11-21T20:35:36.679Z,79.33
2018-11-21T20:38:05.785Z,78.55
2018-11-21T20:40:35.733Z,78.38
2018-11-21T20:43:04.396Z,79.64
2018-11-21T20:45:32.974Z,79.88
2018-11-21T20:48:02.187Z,79.89
2018-11-21T20:50:30.819Z,79.67
2018-11-21T20:53:00.187Z,79.08
2018-11-21T20:55:30.274Z,79.39
2018-11-21T20:57:58.853Z,80.31
2018-11-21T21:00:28.936Z,79.98
2018-11-21T21:02:57.519Z,80.09
2018-11-21T21:05:26.944Z,79.40
2018-11-21T21:07:55.932Z,80.35
2018-11-21T21:10:25.964Z,80.08
2018-11-21T21:12:54.504Z,80.59
2018-11-21T21:15:23.098Z,80.65
2018-11-21T21:17:52.054Z,81.43
2018-11-21T21:20:21.959Z,82.06
2018-11-21T21:22:52.277Z,82.49
2018-11-21T21:25:22.446Z,82.30
2018-11-21T21:27:51.015Z,82.33
2018-11-21T21:30:27.277Z,82.25
2018-11-21T21:32:55.882Z,82.34
2018-11-21T21:35:25.764Z,83.01
2018-11-21T21:37:54.281Z,83.56
2018-11-21T21:40:23.144Z,83.36
2018-11-21T21:42:51.713Z,83.85
2018-11-21T21:45:21.845Z,83.70
2018-11-21T21:47:50.429Z,82.93
2018-11-21T21:50:20.428Z,82.88
2018-11-21T21:52:49.025Z,83.63
2018-11-21T21:55:18.551Z,83.11
2018-11-21T21:57:47.187Z,83.27
2018-11-21T22:00:17.469Z,83.27
2018-11-21T22:02:46.582Z,83.21
2018-11-21T22:05:15.180Z,82.64
2018-11-21T22:07:43.934Z,83.00
2018-11-21T22:10:16.421Z,82.64
2018-11-21T22:12:44.954Z,82.46
2018-11-21T22:15:35.844Z,82.10
2018-11-21T22:18:09.367Z,82.25
2018-11-21T22:20:37.974Z,82.79
2018-11-21T22:23:06.699Z,82.62
2018-11-21T22:25:35.224Z,83.01
2018-11-21T22:28:03.835Z,82.86
2018-11-21T22:30:32.463Z,82.86
2018-11-21T22:33:01.463Z,82.56
2018-11-21T22:35:31.820Z,82.86
2018-11-21T22:38:00.369Z,83.28
2018-11-21T22:40:29.288Z,82.65
2018-11-21T22:42:57.837Z,81.98
2018-11-21T22:45:26.369Z,81.08
2018-11-21T22:47:57.308Z,82.22
2018-11-21T22:50:26.408Z,82.47
2018-11-21T22:52:54.963Z,81.79
2018-11-21T22:55:23.742Z,81.12
2018-11-21T22:57:53.050Z,80.29
2018-11-21T23:00:40.242Z,80.30
2018-11-21T23:03:09.033Z,81.98
2018-11-21T23:05:37.821Z,80.97
2018-11-21T23:08:06.633Z,80.70
2018-11-21T23:10:35.160Z,80.85
2018-11-21T23:13:03.725Z,80.25
2018-11-21T23:15:32.320Z,81.29
2018-11-21T23:18:00.843Z,81.12
2018-11-21T23:20:29.397Z,79.76
2018-11-21T23:22:57.972Z,80.07
2018-11-21T23:25:26.538Z,80.92
2018-11-21T23:27:55.115Z,79.94
2018-11-21T23:30:23.648Z,80.59
2018-11-21T23:32:52.227Z,81.13
2018-11-21T23:35:21.327Z,81.33
2018-11-21T23:37:49.915Z,80.69
2018-11-21T23:40:18.528Z,80.38
2018-11-21T23:42:48.697Z,80.37
2018-11-21T23:45:17.835Z,80.78
2018-11-21T23:47:46.647Z,80.79
2018-11-21T23:50:16.472Z,80.75
2018-11-21T23:52:45.076Z,79.95
2018-11-21T23:55:18.959Z,79.66
2018-11-21T23:57:47.555Z,80.15
